Atlanta, Idaho
Current Conditions -  °F | °C
As of 6:47 PM on Sunday 25 Jan 2015 (Local Time) from KSUN Reporting Station
Broken Clouds Broken Clouds  
Wind Chill: 23°   Ceiling: 13000
Heat Index: 28°   Visibility: 10mi
Dew Point: 28°   Wind: 5mph
Humidity: 100%   Direction: 320°NW
Pressure: 30.42"   Gusts: NA
Location:  43.8°N, 115.13°W
Report Text: KSUN 260147Z 32004KT 10SM BKN130 BKN180 M02/M02 A3042
Loading
Personal Weather Stations






























Interactive Weather Map New forecast layout! Learn more

10-Day Weather Forecast

Advertisements
Track Severe Weather on mobile